sensor_id;sensor_type;location;lat;lon;timestamp;P1;durP1;ratioP1;P2;durP2;ratioP2
28904;SDS011;60848;53.884;11.446;2022-12-05T03:43:53;62.97;;;24.38;;
28904;SDS011;60848;53.884;11.446;2022-12-05T09:17:03;66.00;;;23.90;;
28904;SDS011;60848;53.884;11.446;2022-12-05T09:19:33;73.43;;;25.10;;
28904;SDS011;60848;53.884;11.446;2022-12-05T09:22:03;62.08;;;25.25;;
28904;SDS011;60848;53.884;11.446;2022-12-05T09:24:31;66.43;;;24.42;;
28904;SDS011;60848;53.884;11.446;2022-12-05T09:27:00;71.15;;;26.38;;
28904;SDS011;60848;53.884;11.446;2022-12-05T09:29:28;74.65;;;25.95;;
28904;SDS011;60848;53.884;11.446;2022-12-05T09:31:58;70.32;;;26.55;;
28904;SDS011;60848;53.884;11.446;2022-12-05T09:34:26;73.55;;;26.95;;
28904;SDS011;60848;53.884;11.446;2022-12-05T09:36:56;101.20;;;38.95;;
28904;SDS011;60848;53.884;11.446;2022-12-05T09:39:45;66.18;;;25.75;;
28904;SDS011;60848;53.884;11.446;2022-12-05T09:42:26;79.00;;;25.98;;
28904;SDS011;60848;53.884;11.446;2022-12-05T09:45:03;78.22;;;27.10;;
28904;SDS011;60848;53.884;11.446;2022-12-05T09:47:48;73.45;;;27.52;;
28904;SDS011;60848;53.884;11.446;2022-12-05T09:50:28;72.40;;;25.42;;
28904;SDS011;60848;53.884;11.446;2022-12-05T09:53:08;79.00;;;27.75;;
28904;SDS011;60848;53.884;11.446;2022-12-05T09:58:17;72.10;;;25.23;;
28904;SDS011;60848;53.884;11.446;2022-12-05T10:00:57;79.15;;;25.90;;
28904;SDS011;60848;53.884;11.446;2022-12-05T10:03:31;70.60;;;26.67;;
28904;SDS011;60848;53.884;11.446;2022-12-05T10:06:08;70.00;;;26.30;;
28904;SDS011;60848;53.884;11.446;2022-12-05T10:08:46;73.20;;;26.77;;
28904;SDS011;60848;53.884;11.446;2022-12-05T10:11:29;75.85;;;26.50;;
28904;SDS011;60848;53.884;11.446;2022-12-05T10:14:05;73.78;;;26.50;;
28904;SDS011;60848;53.884;11.446;2022-12-05T10:16:40;63.40;;;25.02;;
28904;SDS011;60848;53.884;11.446;2022-12-05T10:19:15;66.40;;;25.30;;
28904;SDS011;60848;53.884;11.446;2022-12-05T10:21:49;60.95;;;23.83;;
28904;SDS011;60848;53.884;11.446;2022-12-05T10:24:29;67.18;;;24.00;;
28904;SDS011;60848;53.884;11.446;2022-12-05T10:27:01;59.58;;;23.30;;
28904;SDS011;60848;53.884;11.446;2022-12-05T10:29:37;59.83;;;23.13;;
28904;SDS011;60848;53.884;11.446;2022-12-05T10:32:12;62.75;;;23.65;;
28904;SDS011;60848;53.884;11.446;2022-12-05T10:34:45;57.65;;;21.92;;
28904;SDS011;60848;53.884;11.446;2022-12-05T10:37:14;56.25;;;22.80;;
28904;SDS011;60848;53.884;11.446;2022-12-05T10:39:46;56.80;;;22.40;;
28904;SDS011;60848;53.884;11.446;2022-12-05T10:42:17;57.08;;;21.90;;
28904;SDS011;60848;53.884;11.446;2022-12-05T10:44:50;61.05;;;21.70;;
28904;SDS011;60848;53.884;11.446;2022-12-05T10:47:24;63.40;;;22.05;;
28904;SDS011;60848;53.884;11.446;2022-12-05T10:49:53;55.58;;;21.13;;
28904;SDS011;60848;53.884;11.446;2022-12-05T10:52:27;71.20;;;25.83;;
28904;SDS011;60848;53.884;11.446;2022-12-05T10:55:00;61.60;;;24.23;;
28904;SDS011;60848;53.884;11.446;2022-12-05T10:57:34;62.25;;;21.77;;
28904;SDS011;60848;53.884;11.446;2022-12-05T11:00:08;64.47;;;24.15;;
28904;SDS011;60848;53.884;11.446;2022-12-05T11:02:39;61.78;;;22.90;;
28904;SDS011;60848;53.884;11.446;2022-12-05T11:05:14;62.55;;;23.70;;
28904;SDS011;60848;53.884;11.446;2022-12-05T11:07:54;56.97;;;22.92;;
28904;SDS011;60848;53.884;11.446;2022-12-05T11:10:26;53.78;;;22.40;;
28904;SDS011;60848;53.884;11.446;2022-12-05T11:13:02;65.57;;;24.20;;
28904;SDS011;60848;53.884;11.446;2022-12-05T11:15:43;62.53;;;23.02;;
28904;SDS011;60848;53.884;11.446;2022-12-05T11:18:25;59.35;;;22.92;;
28904;SDS011;60848;53.884;11.446;2022-12-05T11:20:56;67.18;;;25.65;;
28904;SDS011;60848;53.884;11.446;2022-12-05T11:23:35;59.05;;;23.02;;
28904;SDS011;60848;53.884;11.446;2022-12-05T11:26:13;55.35;;;22.20;;
28904;SDS011;60848;53.884;11.446;2022-12-05T11:28:45;54.65;;;20.92;;
28904;SDS011;60848;53.884;11.446;2022-12-05T11:31:20;58.20;;;22.00;;
28904;SDS011;60848;53.884;11.446;2022-12-05T11:34:00;68.78;;;24.17;;
28904;SDS011;60848;53.884;11.446;2022-12-05T11:36:37;57.17;;;22.05;;
28904;SDS011;60848;53.884;11.446;2022-12-05T11:39:09;57.70;;;23.33;;
28904;SDS011;60848;53.884;11.446;2022-12-05T11:41:44;60.97;;;24.55;;
28904;SDS011;60848;53.884;11.446;2022-12-05T11:44:37;63.53;;;24.65;;
28904;SDS011;60848;53.884;11.446;2022-12-05T11:47:34;64.40;;;23.88;;
28904;SDS011;60848;53.884;11.446;2022-12-05T11:50:18;66.15;;;23.75;;
28904;SDS011;60848;53.884;11.446;2022-12-05T11:53:03;59.25;;;22.73;;
28904;SDS011;60848;53.884;11.446;2022-12-05T11:55:44;69.78;;;24.83;;
28904;SDS011;60848;53.884;11.446;2022-12-05T11:58:30;65.75;;;24.98;;
28904;SDS011;60848;53.884;11.446;2022-12-05T12:01:26;67.22;;;25.00;;
28904;SDS011;60848;53.884;11.446;2022-12-05T12:04:16;60.80;;;24.77;;
28904;SDS011;60848;53.884;11.446;2022-12-05T12:10:06;55.40;;;23.40;;
28904;SDS011;60848;53.884;11.446;2022-12-05T12:12:43;63.22;;;24.42;;
28904;SDS011;60848;53.884;11.446;2022-12-05T12:15:27;58.30;;;23.13;;
28904;SDS011;60848;53.884;11.446;2022-12-05T12:18:20;60.80;;;23.63;;
28904;SDS011;60848;53.884;11.446;2022-12-05T12:21:14;53.78;;;21.10;;
28904;SDS011;60848;53.884;11.446;2022-12-05T12:23:52;52.67;;;21.48;;
28904;SDS011;60848;53.884;11.446;2022-12-05T12:26:33;51.35;;;21.40;;
28904;SDS011;60848;53.884;11.446;2022-12-05T12:29:14;49.38;;;19.40;;
28904;SDS011;60848;53.884;11.446;2022-12-05T12:31:59;53.42;;;20.95;;
28904;SDS011;60848;53.884;11.446;2022-12-05T12:34:51;48.35;;;20.38;;
28904;SDS011;60848;53.884;11.446;2022-12-05T12:37:32;50.25;;;20.48;;
28904;SDS011;60848;53.884;11.446;2022-12-05T12:40:13;48.63;;;19.60;;
28904;SDS011;60848;53.884;11.446;2022-12-05T12:42:59;50.28;;;20.60;;
28904;SDS011;60848;53.884;11.446;2022-12-05T12:45:54;89.32;;;35.60;;
28904;SDS011;60848;53.884;11.446;2022-12-05T12:48:42;74.90;;;31.77;;
28904;SDS011;60848;53.884;11.446;2022-12-05T12:51:23;51.55;;;22.05;;
28904;SDS011;60848;53.884;11.446;2022-12-05T12:54:02;45.08;;;19.33;;
28904;SDS011;60848;53.884;11.446;2022-12-05T12:57:10;44.05;;;18.15;;
28904;SDS011;60848;53.884;11.446;2022-12-05T12:59:52;46.30;;;17.92;;
28904;SDS011;60848;53.884;11.446;2022-12-05T13:02:32;39.42;;;17.67;;
28904;SDS011;60848;53.884;11.446;2022-12-05T13:05:16;45.42;;;17.70;;
28904;SDS011;60848;53.884;11.446;2022-12-05T13:07:54;42.15;;;18.08;;
28904;SDS011;60848;53.884;11.446;2022-12-05T13:10:29;44.75;;;18.02;;
28904;SDS011;60848;53.884;11.446;2022-12-05T13:13:02;40.72;;;18.38;;
28904;SDS011;60848;53.884;11.446;2022-12-05T13:15:33;43.30;;;17.83;;
28904;SDS011;60848;53.884;11.446;2022-12-05T13:18:06;42.05;;;16.90;;
28904;SDS011;60848;53.884;11.446;2022-12-05T13:20:41;40.30;;;16.92;;
28904;SDS011;60848;53.884;11.446;2022-12-05T13:23:11;45.40;;;18.38;;
28904;SDS011;60848;53.884;11.446;2022-12-05T13:25:43;39.53;;;19.10;;
28904;SDS011;60848;53.884;11.446;2022-12-05T13:28:21;46.53;;;18.00;;
28904;SDS011;60848;53.884;11.446;2022-12-05T13:30:54;41.47;;;17.02;;
28904;SDS011;60848;53.884;11.446;2022-12-05T13:33:28;40.47;;;17.10;;
28904;SDS011;60848;53.884;11.446;2022-12-05T13:36:04;37.92;;;15.77;;
28904;SDS011;60848;53.884;11.446;2022-12-05T13:39:00;39.05;;;15.38;;
28904;SDS011;60848;53.884;11.446;2022-12-05T13:41:51;36.75;;;15.27;;
28904;SDS011;60848;53.884;11.446;2022-12-05T13:47:20;38.10;;;17.25;;
28904;SDS011;60848;53.884;11.446;2022-12-05T13:49:53;38.92;;;15.85;;
28904;SDS011;60848;53.884;11.446;2022-12-05T13:52:29;37.20;;;15.43;;
28904;SDS011;60848;53.884;11.446;2022-12-05T13:55:00;39.25;;;16.20;;
28904;SDS011;60848;53.884;11.446;2022-12-05T13:57:45;36.20;;;16.10;;
28904;SDS011;60848;53.884;11.446;2022-12-05T14:00:20;37.17;;;16.45;;
28904;SDS011;60848;53.884;11.446;2022-12-05T14:03:01;36.33;;;15.88;;
28904;SDS011;60848;53.884;11.446;2022-12-05T14:05:41;39.65;;;15.70;;
28904;SDS011;60848;53.884;11.446;2022-12-05T14:11:23;38.80;;;15.07;;
28904;SDS011;60848;53.884;11.446;2022-12-05T14:13:51;39.92;;;16.08;;
28904;SDS011;60848;53.884;11.446;2022-12-05T14:16:41;38.45;;;16.65;;
28904;SDS011;60848;53.884;11.446;2022-12-05T14:22:12;30.10;;;14.25;;
28904;SDS011;60848;53.884;11.446;2022-12-05T14:24:50;33.25;;;14.38;;
28904;SDS011;60848;53.884;11.446;2022-12-05T14:27:29;39.40;;;15.90;;
28904;SDS011;60848;53.884;11.446;2022-12-05T14:30:15;38.65;;;16.58;;
28904;SDS011;60848;53.884;11.446;2022-12-05T14:32:48;36.58;;;14.68;;
28904;SDS011;60848;53.884;11.446;2022-12-05T14:35:21;58.35;;;26.52;;
28904;SDS011;60848;53.884;11.446;2022-12-05T14:37:55;39.78;;;18.17;;
28904;SDS011;60848;53.884;11.446;2022-12-05T14:40:28;64.20;;;29.80;;
28904;SDS011;60848;53.884;11.446;2022-12-05T14:43:01;38.08;;;17.88;;
28904;SDS011;60848;53.884;11.446;2022-12-05T14:45:33;31.35;;;15.13;;
28904;SDS011;60848;53.884;11.446;2022-12-05T14:48:05;34.22;;;14.60;;
28904;SDS011;60848;53.884;11.446;2022-12-05T14:50:56;39.17;;;19.73;;
28904;SDS011;60848;53.884;11.446;2022-12-05T14:56:13;41.93;;;21.07;;
28904;SDS011;60848;53.884;11.446;2022-12-05T14:58:50;38.30;;;20.20;;
28904;SDS011;60848;53.884;11.446;2022-12-05T15:01:24;37.10;;;18.98;;
28904;SDS011;60848;53.884;11.446;2022-12-05T15:03:59;37.93;;;19.40;;
28904;SDS011;60848;53.884;11.446;2022-12-05T15:06:40;36.38;;;19.38;;
28904;SDS011;60848;53.884;11.446;2022-12-05T15:09:29;39.70;;;21.52;;
28904;SDS011;60848;53.884;11.446;2022-12-05T15:12:10;39.28;;;21.50;;
28904;SDS011;60848;53.884;11.446;2022-12-05T15:14:48;34.70;;;18.23;;
28904;SDS011;60848;53.884;11.446;2022-12-05T15:17:24;33.33;;;18.00;;
28904;SDS011;60848;53.884;11.446;2022-12-05T15:19:58;36.50;;;18.40;;
28904;SDS011;60848;53.884;11.446;2022-12-05T15:22:31;36.83;;;19.85;;
28904;SDS011;60848;53.884;11.446;2022-12-05T15:25:13;37.35;;;19.45;;
28904;SDS011;60848;53.884;11.446;2022-12-05T15:27:59;45.70;;;24.52;;
28904;SDS011;60848;53.884;11.446;2022-12-05T15:30:35;47.17;;;24.42;;
28904;SDS011;60848;53.884;11.446;2022-12-05T15:33:07;40.40;;;21.98;;
28904;SDS011;60848;53.884;11.446;2022-12-05T15:35:39;38.08;;;19.80;;
28904;SDS011;60848;53.884;11.446;2022-12-05T15:38:11;34.75;;;18.00;;
28904;SDS011;60848;53.884;11.446;2022-12-05T15:40:52;34.67;;;18.00;;
28904;SDS011;60848;53.884;11.446;2022-12-05T15:43:25;34.40;;;18.77;;
28904;SDS011;60848;53.884;11.446;2022-12-05T15:46:07;37.33;;;18.02;;
28904;SDS011;60848;53.884;11.446;2022-12-05T15:48:49;36.88;;;18.33;;
28904;SDS011;60848;53.884;11.446;2022-12-05T15:51:19;35.95;;;18.05;;
28904;SDS011;60848;53.884;11.446;2022-12-05T15:53:50;34.17;;;17.55;;
28904;SDS011;60848;53.884;11.446;2022-12-05T15:56:22;32.97;;;18.23;;
28904;SDS011;60848;53.884;11.446;2022-12-05T15:58:55;36.05;;;18.20;;
28904;SDS011;60848;53.884;11.446;2022-12-05T16:01:32;35.78;;;18.55;;
28904;SDS011;60848;53.884;11.446;2022-12-05T16:04:12;34.30;;;18.38;;
28904;SDS011;60848;53.884;11.446;2022-12-05T16:06:44;38.25;;;19.10;;
28904;SDS011;60848;53.884;11.446;2022-12-05T16:09:19;36.95;;;18.45;;
28904;SDS011;60848;53.884;11.446;2022-12-05T16:11:49;35.35;;;19.17;;
28904;SDS011;60848;53.884;11.446;2022-12-05T16:14:19;36.30;;;18.67;;
28904;SDS011;60848;53.884;11.446;2022-12-05T16:17:12;35.25;;;18.45;;
28904;SDS011;60848;53.884;11.446;2022-12-05T16:19:42;40.13;;;21.63;;
28904;SDS011;60848;53.884;11.446;2022-12-05T16:22:16;39.17;;;18.93;;
28904;SDS011;60848;53.884;11.446;2022-12-05T16:24:53;37.70;;;20.30;;
28904;SDS011;60848;53.884;11.446;2022-12-05T16:27:25;75.23;;;37.53;;
28904;SDS011;60848;53.884;11.446;2022-12-05T16:30:06;48.00;;;27.20;;
28904;SDS011;60848;53.884;11.446;2022-12-05T16:32:40;33.60;;;18.90;;
28904;SDS011;60848;53.884;11.446;2022-12-05T16:35:29;34.85;;;18.55;;
28904;SDS011;60848;53.884;11.446;2022-12-05T16:38:03;34.90;;;18.23;;
28904;SDS011;60848;53.884;11.446;2022-12-05T16:40:57;43.42;;;23.85;;
28904;SDS011;60848;53.884;11.446;2022-12-05T16:43:39;39.47;;;21.73;;
28904;SDS011;60848;53.884;11.446;2022-12-05T16:49:15;37.05;;;19.17;;
28904;SDS011;60848;53.884;11.446;2022-12-05T16:52:12;34.60;;;19.58;;
28904;SDS011;60848;53.884;11.446;2022-12-05T16:54:41;35.90;;;19.23;;
28904;SDS011;60848;53.884;11.446;2022-12-05T16:57:14;36.67;;;18.90;;
28904;SDS011;60848;53.884;11.446;2022-12-05T16:59:43;35.88;;;19.92;;
28904;SDS011;60848;53.884;11.446;2022-12-05T17:02:15;37.17;;;19.48;;
28904;SDS011;60848;53.884;11.446;2022-12-05T17:04:49;33.60;;;18.95;;
28904;SDS011;60848;53.884;11.446;2022-12-05T17:07:19;34.45;;;19.40;;
28904;SDS011;60848;53.884;11.446;2022-12-05T17:10:00;35.03;;;20.00;;
28904;SDS011;60848;53.884;11.446;2022-12-05T17:12:28;33.58;;;18.00;;
28904;SDS011;60848;53.884;11.446;2022-12-05T17:14:57;29.65;;;16.73;;
28904;SDS011;60848;53.884;11.446;2022-12-05T17:17:25;30.85;;;17.23;;
28904;SDS011;60848;53.884;11.446;2022-12-05T17:19:55;30.48;;;17.33;;
28904;SDS011;60848;53.884;11.446;2022-12-05T17:22:24;32.25;;;17.95;;
28904;SDS011;60848;53.884;11.446;2022-12-05T17:24:53;32.55;;;17.42;;
28904;SDS011;60848;53.884;11.446;2022-12-05T17:27:25;30.98;;;17.95;;
28904;SDS011;60848;53.884;11.446;2022-12-05T17:29:53;31.02;;;17.45;;
28904;SDS011;60848;53.884;11.446;2022-12-05T17:32:22;33.30;;;18.00;;
28904;SDS011;60848;53.884;11.446;2022-12-05T17:34:53;31.08;;;18.30;;
28904;SDS011;60848;53.884;11.446;2022-12-05T17:37:22;28.95;;;18.20;;
28904;SDS011;60848;53.884;11.446;2022-12-05T17:39:53;31.05;;;18.10;;
28904;SDS011;60848;53.884;11.446;2022-12-05T17:42:22;69.50;;;44.67;;
28904;SDS011;60848;53.884;11.446;2022-12-05T17:44:52;33.03;;;18.60;;
28904;SDS011;60848;53.884;11.446;2022-12-05T17:47:20;30.88;;;17.92;;
28904;SDS011;60848;53.884;11.446;2022-12-05T17:49:48;32.25;;;18.25;;
28904;SDS011;60848;53.884;11.446;2022-12-05T17:52:17;34.35;;;18.02;;
28904;SDS011;60848;53.884;11.446;2022-12-05T17:54:49;36.63;;;19.00;;
28904;SDS011;60848;53.884;11.446;2022-12-05T17:57:19;29.92;;;17.52;;
28904;SDS011;60848;53.884;11.446;2022-12-05T17:59:50;30.88;;;17.02;;
28904;SDS011;60848;53.884;11.446;2022-12-05T18:02:18;32.65;;;17.45;;
28904;SDS011;60848;53.884;11.446;2022-12-05T18:04:47;31.70;;;17.70;;
28904;SDS011;60848;53.884;11.446;2022-12-05T18:07:15;31.80;;;18.05;;
28904;SDS011;60848;53.884;11.446;2022-12-05T18:09:44;29.73;;;17.00;;
28904;SDS011;60848;53.884;11.446;2022-12-05T18:12:13;31.08;;;17.73;;
28904;SDS011;60848;53.884;11.446;2022-12-05T18:14:42;35.97;;;19.97;;
28904;SDS011;60848;53.884;11.446;2022-12-05T18:17:13;54.13;;;33.53;;
28904;SDS011;60848;53.884;11.446;2022-12-05T18:19:41;40.83;;;24.13;;
28904;SDS011;60848;53.884;11.446;2022-12-05T18:22:10;34.97;;;20.17;;
28904;SDS011;60848;53.884;11.446;2022-12-05T18:24:43;33.33;;;17.27;;
28904;SDS011;60848;53.884;11.446;2022-12-05T18:27:13;28.60;;;16.42;;
28904;SDS011;60848;53.884;11.446;2022-12-05T18:29:42;31.10;;;17.20;;
28904;SDS011;60848;53.884;11.446;2022-12-05T18:32:10;28.98;;;16.40;;
28904;SDS011;60848;53.884;11.446;2022-12-05T18:34:39;30.08;;;17.15;;
28904;SDS011;60848;53.884;11.446;2022-12-05T18:37:08;65.70;;;39.03;;
28904;SDS011;60848;53.884;11.446;2022-12-05T18:39:37;99.65;;;63.97;;
28904;SDS011;60848;53.884;11.446;2022-12-05T18:42:08;92.85;;;58.08;;
28904;SDS011;60848;53.884;11.446;2022-12-05T18:44:42;53.30;;;33.67;;
28904;SDS011;60848;53.884;11.446;2022-12-05T18:47:12;33.83;;;20.38;;
28904;SDS011;60848;53.884;11.446;2022-12-05T18:49:41;28.23;;;16.42;;
28904;SDS011;60848;53.884;11.446;2022-12-05T18:52:09;29.80;;;17.07;;
28904;SDS011;60848;53.884;11.446;2022-12-05T18:54:38;30.40;;;17.20;;
28904;SDS011;60848;53.884;11.446;2022-12-05T18:57:06;32.72;;;17.92;;
28904;SDS011;60848;53.884;11.446;2022-12-05T18:59:34;31.55;;;19.00;;
28904;SDS011;60848;53.884;11.446;2022-12-05T19:02:07;30.65;;;18.42;;
28904;SDS011;60848;53.884;11.446;2022-12-05T19:04:36;33.75;;;19.17;;
28904;SDS011;60848;53.884;11.446;2022-12-05T19:07:05;30.73;;;18.20;;
28904;SDS011;60848;53.884;11.446;2022-12-05T19:09:33;32.97;;;19.50;;
28904;SDS011;60848;53.884;11.446;2022-12-05T19:12:02;33.70;;;19.33;;
28904;SDS011;60848;53.884;11.446;2022-12-05T19:14:32;32.40;;;18.65;;
28904;SDS011;60848;53.884;11.446;2022-12-05T19:17:00;31.75;;;18.52;;
28904;SDS011;60848;53.884;11.446;2022-12-05T19:19:30;30.08;;;18.25;;
28904;SDS011;60848;53.884;11.446;2022-12-05T19:22:02;31.80;;;18.02;;
28904;SDS011;60848;53.884;11.446;2022-12-05T19:24:30;30.80;;;18.35;;
28904;SDS011;60848;53.884;11.446;2022-12-05T19:27:00;31.07;;;17.63;;
